Record high temperature 44.9°C Record low temperature -0.3°C Record high gust 85.1 km/h Record high average 77.7 km/h Record daily rain 109.1 mm Record low windchill -4.5°C Record high barometer 1043.6 hPa Record low barometer 978.0 hPa
Daily high pressure 1010.5 mb Daily low pressure 1010.2 mb Daily low windchill 13.9°C Daily high heat index 14.4°C Daily high gust speed 11.1 kmh NNE Daily high average speed 7.8 kmh NW
Estación de MeteoMurcia.com -------- Murcia-Puente Tocinos
Ultima grabación a: 02:10 Data: 24 February 2017, time of next update: 02:20
Tiempo actualpartly cloudy/Night Temperatura actual13.9°C (57.0°F), Temperatura aparente 13.9°C
Temperatura máxima (desde medianoche)14.4°C at: 00:04 Temperatura mínima (desde medianoche)13.9°C at: 01:56
Velocidad media del viento (diez minutos)3.7 kmh (2.0 kts) Dirección del viento (diez minutos)W (270°)
Temperatura aparente 13.9°C ráfagas maxima (última hora)7.6 kmh (4.1 kts) at: 01:22
ráfagas maxima (desde medianoche)11.1 kmh (6.0 kts) at: 00:08 Maximo media de un minuto (desde medianoche)7.8 kmh (4.2 kts) at: 00:29
Lluvia (última hora)0.0 mm Lluvia (desde medianoche)0.0 mm (0.00 in.)---
Lluvia Este mes 4.1 mm (0.16 in.) Lluvia Hasta la fecha este año62.8 mm (2.47 in.)
Lluvia máxima por minuto (última hora)0.0 mm/min Lluvia maxima por hora (últimas 6 horas)0.0 mm/hora
Lluvia de ayer 0.8 mm Punto de rocío 11.8°C (Wet Bulb :12.8°C )
Humedad 87 %, Humidex 16.0°C Barómetro corregido a msl1010.5 mb
cambio de presión0.0 mb (última hora) Tendencia (últimas 1 hora)ESTACIONARIO
cambio de presión (últimas 12 horas)-0.6 mb cambio de presión (últimas 6 horas)+0.8 mb
Current Temp. Interna 23.0°C
Current Hum. Interna 55%


Última imagen cámara web


Weather report/warning/Metars

Alicante / El Altet, Spain (LEAL) 38-17N 000-33W 31M
Feb 23, 2017 - 07:30 PM EST / 2017.02.24 0030 UTC
Wind: from the NE (050 degrees) at 6 MPH (5 KT) (direction variable):0
Visibility: greater than 7 mile(s):0
Sky conditions: partly cloudy
Temperature: 57 F (14 C)
Dew Point: 53 F (12 C)
Relative Humidity: 87%
Pressure (altimeter): 29.88 in. Hg (1012 hPa)
ob: LEAL 240030Z 05005KT 020V080 9999 SCT065 14/12 Q1012 NOSIG
cycle: 0
Murcia / San Javier, Spain (LELC) 37-47N 000-48W 3M
Feb 23, 2017 - 04:00 PM EST / 2017.02.23 2100 UTC
Wind: from the N (360 degrees) at 7 MPH (6 KT):0
Visibility: greater than 7 mile(s):0
Sky conditions: mostly clear
Temperature: 59 F (15 C)
Dew Point: 55 F (13 C)
Relative Humidity: 87%
Pressure (altimeter): 29.85 in. Hg (1011 hPa)
ob: LELC 232100Z 36006KT 9999 FEW038 15/13 Q1011 NOSIG
cycle: 21
Murcia / Alcantarilla, Spain (LERI) 37-57N 001-14W 75M
Feb 23, 2017 - 01:00 PM EST / 2017.02.23 1800 UTC
Wind: from the ENE (070 degrees) at 7 MPH (6 KT):0
Visibility: 5 mile(s):0
Sky conditions: mostly clear
Temperature: 60 F (16 C)
Dew Point: 50 F (10 C)
Relative Humidity: 67%
Pressure (altimeter): 29.85 in. Hg (1011 hPa)
ob: LERI 231800Z 07006KT 9000 FEW050 16/10 Q1011 NOSIG
cycle: 18
Gerona / Costa Brava, Spain (LEGE) 41-54N 002-46E 129M
Feb 23, 2017 - 07:30 PM EST / 2017.02.24 0030 UTC
Wind: from the NNE (020 degrees) at 6 MPH (5 KT) (direction variable):0
Visibility: 4 mile(s):0
Sky conditions: mostly clear
Temperature: 51 F (11 C)
Dew Point: 48 F (9 C)
Relative Humidity: 87%
Pressure (altimeter): 29.94 in. Hg (1014 hPa)
ob: LEGE 240030Z 02005KT 350V050 8000 FEW020 11/09 Q1014
cycle: 0
Madri-Colmenar, Spain (LECV) 40-39N 003-44W
Feb 23, 2017 - 01:00 PM EST / 2017.02.23 1800 UTC
Wind: Calm:0
Visibility: 3 mile(s):0
Temperature: 53 F (12 C)
Dew Point: 41 F (5 C)
Relative Humidity: 62%
Pressure (altimeter): 29.94 in. Hg (1014 hPa)
ob: LECV 231800Z 00000KT 6000 2900S NSC 12/05 Q1014
cycle: 18
Asturias / Aviles, Spain (LEAS) 43-33N 006-02W 130M
Feb 23, 2017 - 07:30 PM EST / 2017.02.24 0030 UTC
Wind: from the N (010 degrees) at 5 MPH (4 KT) (direction variable):0
Visibility: 1 mile(s):0
Sky conditions: obscured
Weather: light rain
Temperature: 48 F (9 C)
Dew Point: 48 F (9 C)
Relative Humidity: 100%
Pressure (altimeter): 30.12 in. Hg (1020 hPa)
ob: LEAS 240030Z AUTO 01004KT 290V080 2400 -RA VV001 09/09 Q1020
cycle: 0
Almeria / Aeropuerto, Spain (LEAM) 36-51N 002-23W 21M
Feb 23, 2017 - 07:30 PM EST / 2017.02.24 0030 UTC
Wind: Variable at 2 MPH (2 KT):0
Visibility: greater than 7 mile(s):0
Sky conditions: mostly cloudy
Temperature: 55 F (13 C)
Dew Point: 51 F (11 C)
Relative Humidity: 87%
Pressure (altimeter): 29.88 in. Hg (1012 hPa)
ob: LEAM 240030Z AUTO VRB02KT 9999 BKN057 13/11 Q1012
cycle: 0
Pamplona / Noain, Spain (LEPP) 42-46N 001-38W 453M
Feb 23, 2017 - 07:30 PM EST / 2017.02.24 0030 UTC
Wind: from the NW (320 degrees) at 6 MPH (5 KT) (direction variable):0
Visibility: greater than 7 mile(s):0
Sky conditions: overcast
Temperature: 48 F (9 C)
Dew Point: 41 F (5 C)
Relative Humidity: 75%
Pressure (altimeter): 30.03 in. Hg (1017 hPa)
ob: LEPP 240030Z AUTO 32005KT 290V350 9999 OVC019/// 09/05 Q1017
cycle: 0
Badajoz / Talavera La Real, Spain (LEBZ) 38-53N 006-49W 192M
Feb 23, 2017 - 03:00 PM EST / 2017.02.23 2000 UTC
Wind: from the SE (140 degrees) at 2 MPH (2 KT):0
Visibility: 4 mile(s):0
Temperature: 55 F (13 C)
Dew Point: 50 F (10 C)
Relative Humidity: 81%
Pressure (altimeter): 29.94 in. Hg (1014 hPa)
ob: LEBZ 232000Z 14002KT 8000 NSC 13/10 Q1014
cycle: 20
Albacete / Los Llanos, Spain (LEAB) 38-57N 001-51W 704M
Feb 23, 2017 - 07:00 PM EST / 2017.02.24 0000 UTC
Wind: from the WSW (250 degrees) at 6 MPH (5 KT):0
Visibility: greater than 7 mile(s):0
Sky conditions: mostly clear
Weather: Towering cumulus clouds observed
Temperature: 44 F (7 C)
Dew Point: 42 F (6 C)
Relative Humidity: 93%
Pressure (altimeter): 29.91 in. Hg (1013 hPa)
ob: LEAB 240000Z 25005KT 9999 FEW020 07/06 Q1013 TEMPO SHRA FEW035TCU
cycle: 0



La informacion se graba a intervalos de 2 minutos, pero hay info grabada cada minuto. Optimizado para 800*600 y Color verdadero. Use el boton de

Use the RECARGA en su navegador para recojer la ulima info.

Clicar aquí para regarga diaria de medias/extremas del mes














Created by "Weather Display" software version 10.37S at this start time/date 13:34:23 19/02/2017

La estación de MeteoMurcia.com, publica sus datos en los siguientes proyectos:

Meteoclimatic www.awekas.at

W3Counter
Web Analytics